createdAt,value
2023-08-10T00:01:41.560Z,101477.81
2023-08-10T00:04:07.976Z,101489.66
2023-08-10T00:06:34.552Z,101486.94
2023-08-10T00:09:01.113Z,101475.00
2023-08-10T00:11:27.694Z,101476.66
2023-08-10T00:13:54.463Z,101474.13
2023-08-10T00:16:21.114Z,101479.66
2023-08-10T00:18:47.645Z,101478.19
2023-08-10T00:21:14.019Z,101477.03
2023-08-10T00:23:40.535Z,101484.13
2023-08-10T00:26:06.979Z,101481.09
2023-08-10T00:28:34.129Z,101482.50
2023-08-10T00:31:00.754Z,101483.88
2023-08-10T00:33:33.684Z,101487.97
2023-08-10T00:36:05.710Z,101483.84
2023-08-10T00:38:32.093Z,101475.91
2023-08-10T00:40:58.529Z,101486.94
2023-08-10T00:43:25.469Z,101477.41
2023-08-10T00:45:55.280Z,101480.41
2023-08-10T00:48:22.238Z,101478.69
2023-08-10T00:50:52.568Z,101475.97
2023-08-10T00:53:19.540Z,101486.69
2023-08-10T00:55:52.239Z,101487.78
2023-08-10T00:58:22.528Z,101489.50
2023-08-10T01:00:50.178Z,101486.91
2023-08-10T01:03:17.816Z,101485.19
2023-08-10T01:06:01.369Z,101490.53
2023-08-10T01:08:40.304Z,101494.41
2023-08-10T01:11:21.780Z,101490.06
2023-08-10T01:14:09.077Z,101493.19
2023-08-10T01:16:41.414Z,101497.97
2023-08-10T01:19:19.772Z,101496.84
2023-08-10T01:22:01.364Z,101503.13
2023-08-10T01:24:32.979Z,101501.28
2023-08-10T01:27:00.506Z,101505.25
2023-08-10T01:29:27.947Z,101497.56
2023-08-10T01:31:54.301Z,101498.56
2023-08-10T01:34:20.874Z,101499.69
2023-08-10T01:36:47.302Z,101502.28
2023-08-10T01:39:13.817Z,101499.34
2023-08-10T01:41:40.301Z,101508.88
2023-08-10T01:44:06.688Z,101514.09
2023-08-10T01:46:38.964Z,101510.53
2023-08-10T01:49:09.129Z,101511.41
2023-08-10T01:51:35.958Z,101495.91
2023-08-10T01:54:04.965Z,101495.34
2023-08-10T01:56:31.605Z,101499.59
2023-08-10T01:58:58.247Z,101494.97
2023-08-10T02:01:24.672Z,101497.06
2023-08-10T02:03:51.261Z,101492.91
2023-08-10T02:06:17.728Z,101496.34
2023-08-10T02:08:44.140Z,101508.78
2023-08-10T02:11:10.481Z,101502.47
2023-08-10T02:13:37.046Z,101498.19
2023-08-10T02:16:04.632Z,101502.19
2023-08-10T02:18:31.455Z,101506.81
2023-08-10T02:20:58.076Z,101506.19
2023-08-10T02:23:24.719Z,101510.06
2023-08-10T02:25:51.168Z,101503.28
2023-08-10T02:28:17.557Z,101510.53
2023-08-10T02:31:00.206Z,101518.22
2023-08-10T02:33:26.648Z,101510.06
2023-08-10T02:35:53.032Z,101502.28
2023-08-10T02:38:19.416Z,101502.34
2023-08-10T02:40:45.843Z,101502.91
2023-08-10T02:43:12.786Z,101505.56
2023-08-10T02:45:39.180Z,101505.88
2023-08-10T02:48:06.976Z,101505.69
2023-08-10T02:50:33.459Z,101507.78
2023-08-10T02:52:59.886Z,101504.94
2023-08-10T02:55:26.237Z,101503.47
2023-08-10T02:57:52.692Z,101497.91
2023-08-10T03:00:19.158Z,101500.88
2023-08-10T03:02:45.698Z,101503.56
2023-08-10T03:05:12.392Z,101500.78
2023-08-10T03:07:38.890Z,101504.66
2023-08-10T03:10:07.829Z,101507.44
2023-08-10T03:12:35.859Z,101506.66
2023-08-10T03:15:03.230Z,101514.06
2023-08-10T03:17:29.860Z,101515.13
2023-08-10T03:19:56.277Z,101506.66
2023-08-10T03:22:22.721Z,101507.28
2023-08-10T03:24:49.094Z,101507.19
2023-08-10T03:27:15.507Z,101495.19
2023-08-10T03:29:41.856Z,101499.00
2023-08-10T03:32:08.307Z,101513.88
2023-08-10T03:34:34.671Z,101509.66
2023-08-10T03:37:02.864Z,101521.16
2023-08-10T03:39:29.231Z,101524.59
2023-08-10T03:41:55.671Z,101528.38
2023-08-10T03:44:22.260Z,101534.84
2023-08-10T03:46:49.491Z,101534.66
2023-08-10T03:49:16.062Z,101530.47
2023-08-10T03:51:42.470Z,101536.72
2023-08-10T03:54:08.923Z,101526.53
2023-08-10T03:56:35.364Z,101521.66
2023-08-10T03:59:01.730Z,101537.53
2023-08-10T04:01:28.205Z,101537.16
2023-08-10T04:03:54.719Z,101542.84
2023-08-10T04:06:21.205Z,101553.66
2023-08-10T04:08:47.703Z,101550.66
2023-08-10T04:11:14.078Z,101551.16
2023-08-10T04:13:40.566Z,101559.56
2023-08-10T04:16:07.779Z,101565.50
2023-08-10T04:18:34.909Z,101558.28
2023-08-10T04:21:01.697Z,101552.31
2023-08-10T04:23:28.095Z,101551.25
2023-08-10T04:25:54.606Z,101562.47
2023-08-10T04:28:21.074Z,101563.56
2023-08-10T04:30:47.500Z,101565.66
2023-08-10T04:33:13.995Z,101569.31
2023-08-10T04:35:40.428Z,101569.75
2023-08-10T04:38:07.077Z,101569.81
2023-08-10T04:40:33.963Z,101566.56
2023-08-10T04:43:00.755Z,101567.41
2023-08-10T04:45:27.150Z,101569.03
2023-08-10T04:47:53.657Z,101575.09
2023-08-10T04:50:20.100Z,101568.88
2023-08-10T04:52:46.509Z,101581.13
2023-08-10T04:55:13.248Z,101583.94
2023-08-10T04:57:39.998Z,101585.47
2023-08-10T05:00:12.235Z,101587.19
2023-08-10T05:02:39.407Z,101590.31
2023-08-10T05:05:07.294Z,101582.28
2023-08-10T05:07:34.205Z,101585.31
2023-08-10T05:10:06.048Z,101586.97
2023-08-10T05:12:33.059Z,101588.91
2023-08-10T05:14:59.478Z,101579.22
2023-08-10T05:17:25.946Z,101579.16
2023-08-10T05:19:52.406Z,101570.03
2023-08-10T05:22:19.080Z,101575.81
2023-08-10T05:24:45.559Z,101575.78
2023-08-10T05:27:11.941Z,101578.47
2023-08-10T05:29:38.290Z,101577.31
2023-08-10T05:32:05.116Z,101584.31
2023-08-10T05:34:31.616Z,101589.75
2023-08-10T05:36:58.006Z,101596.66
2023-08-10T05:39:24.475Z,101595.84
2023-08-10T05:41:50.958Z,101595.97
2023-08-10T05:44:17.339Z,101600.34
2023-08-10T05:46:43.764Z,101604.25
2023-08-10T05:49:10.120Z,101588.50
2023-08-10T05:51:36.525Z,101596.22
2023-08-10T05:54:03.867Z,101589.06
2023-08-10T05:56:30.335Z,101585.13
2023-08-10T05:58:56.740Z,101582.78
2023-08-10T06:01:23.633Z,101581.47
2023-08-10T06:03:50.165Z,101593.28
2023-08-10T06:06:17.635Z,101587.75
2023-08-10T06:08:45.428Z,101586.09
2023-08-10T06:11:12.194Z,101582.34
2023-08-10T06:13:43.572Z,101591.16
2023-08-10T06:16:10.381Z,101584.34
2023-08-10T06:18:37.661Z,101590.50
2023-08-10T06:21:05.161Z,101594.63
2023-08-10T06:23:31.794Z,101598.13
2023-08-10T06:25:58.580Z,101602.94
2023-08-10T06:28:24.982Z,101596.16
2023-08-10T06:30:55.280Z,101597.88
2023-08-10T06:33:22.037Z,101598.66
2023-08-10T06:35:50.604Z,101601.22
2023-08-10T06:38:17.094Z,101591.50
2023-08-10T06:40:43.470Z,101589.03
2023-08-10T06:43:10.592Z,101593.25
2023-08-10T06:45:36.952Z,101589.94
2023-08-10T06:48:06.435Z,101585.84
2023-08-10T06:50:33.574Z,101590.72
2023-08-10T06:52:59.989Z,101610.66
2023-08-10T06:55:30.595Z,101607.53
2023-08-10T06:57:57.596Z,101621.13
2023-08-10T07:02:55.992Z,101615.97
2023-08-10T07:05:29.813Z,101617.25
2023-08-10T07:07:57.054Z,101623.63
2023-08-10T07:10:24.113Z,101612.34
2023-08-10T07:12:50.515Z,101621.75
2023-08-10T07:15:18.541Z,101623.09
2023-08-10T07:17:45.035Z,101616.38
2023-08-10T07:20:11.485Z,101610.28
2023-08-10T07:22:40.488Z,101618.00
2023-08-10T07:25:07.441Z,101611.88
2023-08-10T07:27:35.662Z,101612.91
2023-08-10T07:30:04.339Z,101612.50
2023-08-10T07:32:31.250Z,101609.50
2023-08-10T07:34:57.927Z,101609.53
2023-08-10T07:37:24.417Z,101603.94
2023-08-10T07:39:50.804Z,101603.94
2023-08-10T07:42:17.292Z,101607.03
2023-08-10T07:44:44.817Z,101606.75
2023-08-10T07:47:11.277Z,101612.22
2023-08-10T07:49:37.708Z,101602.22
2023-08-10T07:52:04.519Z,101601.97
2023-08-10T07:54:31.619Z,101596.03
2023-08-10T07:56:57.974Z,101600.47
2023-08-10T07:59:24.373Z,101598.63
2023-08-10T08:01:50.817Z,101601.28
2023-08-10T08:04:17.393Z,101601.03
2023-08-10T08:06:43.974Z,101598.72
2023-08-10T08:09:11.657Z,101591.56
2023-08-10T08:11:38.093Z,101588.69
2023-08-10T08:14:04.666Z,101588.28
2023-08-10T08:16:33.238Z,101580.88
2023-08-10T08:19:00.512Z,101577.88
2023-08-10T08:21:29.669Z,101580.50
2023-08-10T08:23:57.676Z,101580.09
2023-08-10T08:26:27.891Z,101579.78
2023-08-10T08:28:54.471Z,101583.25
2023-08-10T08:31:21.029Z,101584.72
2023-08-10T08:33:48.121Z,101587.13
2023-08-10T08:36:14.633Z,101585.78
2023-08-10T08:38:41.193Z,101578.78
2023-08-10T08:41:09.982Z,101580.91
2023-08-10T08:43:37.696Z,101583.94
2023-08-10T08:46:05.431Z,101585.03
2023-08-10T08:48:32.377Z,101580.34
2023-08-10T08:50:58.983Z,101579.84
2023-08-10T08:53:26.561Z,101572.97
2023-08-10T08:55:52.983Z,101573.44
2023-08-10T08:58:20.496Z,101567.19
2023-08-10T09:00:53.192Z,101558.16
2023-08-10T09:03:25.932Z,101553.59
2023-08-10T09:05:52.792Z,101548.66
2023-08-10T09:08:20.708Z,101548.69
2023-08-10T09:10:48.127Z,101548.50
2023-08-10T09:13:22.714Z,101544.34
2023-08-10T09:16:07.463Z,101537.97
2023-08-10T09:18:35.363Z,101540.34
2023-08-10T09:21:14.032Z,101542.19
2023-08-10T09:23:44.565Z,101542.41
2023-08-10T09:26:12.715Z,101546.75
2023-08-10T09:28:39.768Z,101544.75
2023-08-10T09:31:12.539Z,101544.25
2023-08-10T09:33:41.774Z,101549.38
2023-08-10T09:36:09.857Z,101538.28
2023-08-10T09:38:36.358Z,101552.41
2023-08-10T09:41:08.577Z,101548.66
2023-08-10T09:43:37.061Z,101550.53
2023-08-10T09:46:07.349Z,101546.16
2023-08-10T09:48:49.789Z,101546.63
2023-08-10T09:51:16.750Z,101540.00
2023-08-10T09:53:43.311Z,101545.34
2023-08-10T09:56:12.092Z,101540.38
2023-08-10T09:58:40.233Z,101534.56
2023-08-10T10:01:09.000Z,101541.34
2023-08-10T10:03:36.196Z,101534.84
2023-08-10T10:06:03.121Z,101540.81
2023-08-10T10:08:32.297Z,101535.25
2023-08-10T10:11:06.295Z,101529.78
2023-08-10T10:13:33.408Z,101536.28
2023-08-10T10:16:01.479Z,101533.06
2023-08-10T10:18:28.802Z,101524.84
2023-08-10T10:20:55.370Z,101514.03
2023-08-10T10:23:22.451Z,101514.63
2023-08-10T10:25:58.533Z,101508.38
2023-08-10T10:28:28.123Z,101520.41
2023-08-10T10:31:06.865Z,101520.34
2023-08-10T10:33:34.569Z,101514.13
2023-08-10T10:36:23.448Z,101512.06
2023-08-10T10:39:03.228Z,101514.53
2023-08-10T10:41:32.493Z,101509.47
2023-08-10T10:44:00.361Z,101512.03
2023-08-10T10:46:37.417Z,101507.00
2023-08-10T10:49:15.622Z,101520.31
2023-08-10T10:52:03.213Z,101526.47
2023-08-10T10:54:35.364Z,101519.09
2023-08-10T10:57:02.529Z,101517.66
2023-08-10T10:59:29.012Z,101523.81
2023-08-10T11:01:55.840Z,101520.75
2023-08-10T11:04:23.824Z,101525.13
2023-08-10T11:06:50.260Z,101522.44
2023-08-10T11:09:16.688Z,101522.00
2023-08-10T11:11:49.033Z,101513.19
2023-08-10T11:14:15.556Z,101509.09
2023-08-10T11:16:43.433Z,101507.00
2023-08-10T11:19:16.178Z,101517.56
2023-08-10T11:21:44.476Z,101504.78
2023-08-10T11:24:11.019Z,101507.34
2023-08-10T11:26:37.647Z,101504.53
2023-08-10T11:29:04.344Z,101498.97
2023-08-10T11:31:43.832Z,101492.75
2023-08-10T11:34:23.878Z,101491.06
2023-08-10T11:36:52.379Z,101487.94
2023-08-10T11:39:19.871Z,101489.94
2023-08-10T11:41:48.215Z,101482.91
2023-08-10T11:44:29.177Z,101475.88
2023-08-10T11:47:00.366Z,101477.16
2023-08-10T11:49:32.316Z,101473.06
2023-08-10T11:52:01.660Z,101468.69
2023-08-10T11:54:32.759Z,101469.16
2023-08-10T11:57:09.824Z,101467.19
2023-08-10T11:59:38.887Z,101465.75
2023-08-10T12:02:05.918Z,101466.31
2023-08-10T12:04:37.584Z,101473.97
2023-08-10T12:07:05.210Z,101465.47
2023-08-10T12:09:32.173Z,101469.59
2023-08-10T12:11:59.866Z,101466.91
2023-08-10T12:14:27.559Z,101475.09
2023-08-10T12:16:54.019Z,101476.28
2023-08-10T12:21:50.754Z,101474.25
2023-08-10T12:24:17.147Z,101461.03
2023-08-10T12:26:45.536Z,101472.47
2023-08-10T12:29:14.685Z,101471.03
2023-08-10T12:31:41.325Z,101464.78
2023-08-10T12:34:07.724Z,101460.56
2023-08-10T12:36:34.093Z,101457.88
2023-08-10T12:39:03.327Z,101457.97
2023-08-10T12:41:30.365Z,101461.09
2023-08-10T12:43:56.719Z,101457.34
2023-08-10T12:46:23.306Z,101460.50
2023-08-10T12:48:50.656Z,101465.25
2023-08-10T12:51:18.122Z,101461.31
2023-08-10T12:53:44.512Z,101458.28
2023-08-10T12:56:10.970Z,101443.38
2023-08-10T12:58:38.503Z,101443.56
2023-08-10T13:01:05.109Z,101449.66
2023-08-10T13:03:33.581Z,101450.31
2023-08-10T13:05:59.971Z,101450.78
2023-08-10T13:08:26.591Z,101453.97
2023-08-10T13:10:53.924Z,101460.81
2023-08-10T13:13:21.954Z,101459.38
2023-08-10T13:15:48.353Z,101458.53
2023-08-10T13:18:14.752Z,101472.22
2023-08-10T13:20:41.170Z,101471.28
2023-08-10T13:23:07.549Z,101462.38
2023-08-10T13:25:34.006Z,101451.38
2023-08-10T13:28:00.412Z,101447.50
2023-08-10T13:30:26.810Z,101457.13
2023-08-10T13:32:53.238Z,101450.75
2023-08-10T13:35:20.076Z,101455.25
2023-08-10T13:37:46.767Z,101453.72
2023-08-10T13:40:14.940Z,101454.94
2023-08-10T13:42:41.325Z,101444.19
2023-08-10T13:45:08.998Z,101444.31
2023-08-10T13:47:35.417Z,101453.56
2023-08-10T13:50:02.151Z,101455.75
2023-08-10T13:52:28.584Z,101452.56
2023-08-10T13:54:54.991Z,101450.00
2023-08-10T13:57:21.479Z,101446.41
2023-08-10T13:59:48.861Z,101443.22
2023-08-10T14:02:15.933Z,101438.38
2023-08-10T14:04:43.013Z,101444.75
2023-08-10T14:07:09.613Z,101440.16
2023-08-10T14:09:36.070Z,101441.19
2023-08-10T14:12:02.571Z,101435.59
2023-08-10T14:14:30.731Z,101430.69
2023-08-10T14:16:57.975Z,101424.69
2023-08-10T14:19:24.486Z,101421.00
2023-08-10T14:21:53.412Z,101415.94
2023-08-10T14:24:19.906Z,101419.19
2023-08-10T14:26:46.498Z,101418.16
2023-08-10T14:29:12.968Z,101424.59
2023-08-10T14:31:39.513Z,101410.19
2023-08-10T14:34:05.995Z,101405.38
2023-08-10T14:36:32.985Z,101402.69
2023-08-10T14:38:59.449Z,101407.59
2023-08-10T14:41:25.966Z,101406.88
2023-08-10T14:43:52.544Z,101405.44
2023-08-10T14:46:19.495Z,101403.97
2023-08-10T14:48:46.065Z,101409.53
2023-08-10T14:51:12.558Z,101406.41
2023-08-10T14:53:39.138Z,101414.22
2023-08-10T14:56:05.879Z,101409.66
2023-08-10T14:58:32.335Z,101413.13
2023-08-10T15:00:58.770Z,101405.19
2023-08-10T15:03:25.353Z,101401.22
2023-08-10T15:05:51.927Z,101404.31
2023-08-10T15:08:18.490Z,101406.88
2023-08-10T15:10:45.321Z,101403.31
2023-08-10T15:13:11.783Z,101395.28
2023-08-10T15:15:38.337Z,101396.06
2023-08-10T15:18:05.145Z,101393.09
2023-08-10T15:20:31.633Z,101379.25
2023-08-10T15:23:09.266Z,101382.06
2023-08-10T15:25:42.324Z,101378.22
2023-08-10T15:28:08.801Z,101382.19
2023-08-10T15:30:35.474Z,101387.78
2023-08-10T15:33:02.139Z,101383.78
2023-08-10T15:35:29.566Z,101381.38
2023-08-10T15:37:55.973Z,101384.06
2023-08-10T15:40:22.570Z,101389.38
2023-08-10T15:42:48.958Z,101380.94
2023-08-10T15:45:15.341Z,101391.47
2023-08-10T15:47:41.932Z,101388.44
2023-08-10T15:50:10.896Z,101390.41
2023-08-10T15:52:39.088Z,101387.84
2023-08-10T15:55:06.521Z,101376.78
2023-08-10T15:57:32.891Z,101379.16
2023-08-10T15:59:59.377Z,101375.97
2023-08-10T16:02:26.041Z,101375.63
2023-08-10T16:04:52.777Z,101368.19
2023-08-10T16:07:20.769Z,101369.41
2023-08-10T16:09:47.120Z,101377.97
2023-08-10T16:12:13.610Z,101380.31
2023-08-10T16:14:40.013Z,101378.94
2023-08-10T16:17:06.802Z,101380.09
2023-08-10T16:19:33.648Z,101375.06
2023-08-10T16:22:00.033Z,101377.41
2023-08-10T16:24:26.411Z,101372.28
2023-08-10T16:26:52.813Z,101385.59
2023-08-10T16:29:19.178Z,101378.78
2023-08-10T16:31:45.607Z,101381.75
2023-08-10T16:34:12.052Z,101381.75
2023-08-10T16:36:38.518Z,101378.47
2023-08-10T16:39:05.041Z,101375.41
2023-08-10T16:41:32.081Z,101376.38
2023-08-10T16:43:58.658Z,101371.59
2023-08-10T16:46:25.290Z,101382.19
2023-08-10T16:48:51.743Z,101380.44
2023-08-10T16:51:18.211Z,101382.50
2023-08-10T16:53:44.623Z,101382.94
2023-08-10T16:56:11.098Z,101377.03
2023-08-10T16:58:37.523Z,101381.91
2023-08-10T17:01:04.436Z,101376.47
2023-08-10T17:03:31.006Z,101383.97
2023-08-10T17:05:57.415Z,101380.19
2023-08-10T17:08:23.907Z,101387.13
2023-08-10T17:10:50.331Z,101389.50
2023-08-10T17:13:16.680Z,101383.91
2023-08-10T17:15:43.159Z,101385.56
2023-08-10T17:18:09.647Z,101392.84
2023-08-10T17:20:36.133Z,101387.28
2023-08-10T17:23:02.659Z,101394.34
2023-08-10T17:25:29.020Z,101392.94
2023-08-10T17:27:55.639Z,101393.25
2023-08-10T17:30:22.104Z,101390.72
2023-08-10T17:32:48.748Z,101393.50
2023-08-10T17:35:15.185Z,101389.03
2023-08-10T17:37:41.602Z,101379.72
2023-08-10T17:40:09.010Z,101382.00
2023-08-10T17:42:35.505Z,101377.69
2023-08-10T17:45:03.189Z,101388.47
2023-08-10T17:47:30.791Z,101381.66
2023-08-10T17:49:57.387Z,101375.84
2023-08-10T17:52:23.831Z,101377.69
2023-08-10T17:54:50.199Z,101371.78
2023-08-10T17:57:16.654Z,101379.84
2023-08-10T17:59:43.071Z,101385.47
2023-08-10T18:02:10.871Z,101390.13
2023-08-10T18:04:37.386Z,101387.94
2023-08-10T18:07:04.525Z,101386.00
2023-08-10T18:09:31.077Z,101386.13
2023-08-10T18:11:57.451Z,101388.22
2023-08-10T18:14:23.866Z,101380.75
2023-08-10T18:16:50.304Z,101379.53
2023-08-10T18:19:17.178Z,101380.91
2023-08-10T18:21:43.652Z,101376.38
2023-08-10T18:24:10.069Z,101379.44
2023-08-10T18:26:36.506Z,101372.97
2023-08-10T18:29:03.069Z,101372.38
2023-08-10T18:31:29.527Z,101380.78
2023-08-10T18:33:55.941Z,101388.41
2023-08-10T18:36:25.577Z,101383.88
2023-08-10T18:38:52.361Z,101381.66
2023-08-10T18:41:18.835Z,101385.56
2023-08-10T18:43:45.288Z,101390.88
2023-08-10T18:46:11.810Z,101391.69
2023-08-10T18:48:38.215Z,101389.72
2023-08-10T18:51:04.864Z,101382.13
2023-08-10T18:53:32.213Z,101384.53
2023-08-10T18:55:58.700Z,101392.06
2023-08-10T18:58:25.124Z,101395.28
2023-08-10T19:00:56.288Z,101388.56
2023-08-10T19:03:23.430Z,101391.91
2023-08-10T19:05:50.240Z,101397.28
2023-08-10T19:08:16.672Z,101397.84
2023-08-10T19:10:43.204Z,101394.47
2023-08-10T19:13:09.755Z,101398.25
2023-08-10T19:15:36.379Z,101399.47
2023-08-10T19:18:02.806Z,101403.72
2023-08-10T19:20:29.334Z,101419.78
2023-08-10T19:22:55.706Z,101423.09
2023-08-10T19:25:22.204Z,101427.72
2023-08-10T19:27:48.609Z,101430.56
2023-08-10T19:30:15.271Z,101432.50
2023-08-10T19:32:41.707Z,101438.38
2023-08-10T19:35:09.057Z,101433.53
2023-08-10T19:37:35.455Z,101444.66
2023-08-10T19:40:02.041Z,101441.66
2023-08-10T19:42:28.668Z,101442.47
2023-08-10T19:44:55.145Z,101443.63
2023-08-10T19:47:22.243Z,101445.44
2023-08-10T19:49:49.448Z,101446.13
2023-08-10T19:52:15.865Z,101436.94
2023-08-10T19:54:42.298Z,101436.81
2023-08-10T19:57:08.709Z,101439.38
2023-08-10T19:59:35.620Z,101447.25
2023-08-10T20:02:02.098Z,101443.84
2023-08-10T20:04:28.623Z,101446.53
2023-08-10T20:06:55.048Z,101450.41
2023-08-10T20:09:21.522Z,101452.16
2023-08-10T20:11:48.045Z,101451.78
2023-08-10T20:14:14.537Z,101451.13
2023-08-10T20:16:41.294Z,101455.78
2023-08-10T20:19:09.950Z,101461.47
2023-08-10T20:21:36.409Z,101453.78
2023-08-10T20:24:05.202Z,101454.53
2023-08-10T20:26:32.042Z,101463.03
2023-08-10T20:28:58.596Z,101460.16
2023-08-10T20:31:25.323Z,101469.22
2023-08-10T20:33:52.303Z,101469.38
2023-08-10T20:36:19.298Z,101465.00
2023-08-10T20:38:45.868Z,101460.03
2023-08-10T20:41:12.337Z,101457.34
2023-08-10T20:43:38.768Z,101462.13
2023-08-10T20:46:21.308Z,101456.72
2023-08-10T20:48:48.033Z,101459.06
2023-08-10T20:51:15.011Z,101448.31
2023-08-10T20:53:44.870Z,101452.72
2023-08-10T20:56:12.458Z,101455.66
2023-08-10T20:58:39.693Z,101458.44
2023-08-10T21:01:06.989Z,101464.31
2023-08-10T21:03:38.410Z,101470.91
2023-08-10T21:06:05.703Z,101466.63
2023-08-10T21:08:32.725Z,101467.84
2023-08-10T21:10:59.905Z,101477.13
2023-08-10T21:13:26.983Z,101476.63
2023-08-10T21:15:53.574Z,101474.03
2023-08-10T21:18:19.989Z,101476.28
2023-08-10T21:20:46.539Z,101480.06
2023-08-10T21:23:13.326Z,101477.56
2023-08-10T21:25:40.293Z,101480.59
2023-08-10T21:28:07.058Z,101480.94
2023-08-10T21:30:34.336Z,101477.66
2023-08-10T21:33:00.924Z,101493.97
2023-08-10T21:35:27.529Z,101493.16
2023-08-10T21:37:53.918Z,101490.09
2023-08-10T21:40:20.357Z,101497.03
2023-08-10T21:42:46.758Z,101490.34
2023-08-10T21:45:13.187Z,101499.09
2023-08-10T21:47:39.674Z,101501.44
2023-08-10T21:50:06.971Z,101501.25
2023-08-10T21:52:33.583Z,101502.50
2023-08-10T21:54:59.979Z,101504.81
2023-08-10T21:57:26.399Z,101499.53
2023-08-10T21:59:52.768Z,101500.41
2023-08-10T22:02:19.354Z,101500.72
2023-08-10T22:04:46.491Z,101501.22
2023-08-10T22:07:12.963Z,101509.69
2023-08-10T22:09:39.568Z,101504.19
2023-08-10T22:12:08.662Z,101507.56
2023-08-10T22:14:35.254Z,101509.31
2023-08-10T22:17:02.664Z,101505.72
2023-08-10T22:19:29.106Z,101505.72
2023-08-10T22:21:55.524Z,101498.19
2023-08-10T22:24:22.033Z,101503.19
2023-08-10T22:26:48.605Z,101505.47
2023-08-10T22:29:15.011Z,101501.78
2023-08-10T22:31:41.451Z,101503.06
2023-08-10T22:34:07.956Z,101500.22
2023-08-10T22:36:34.337Z,101496.53
2023-08-10T22:39:01.010Z,101501.34
2023-08-10T22:41:27.409Z,101496.84
2023-08-10T22:43:54.014Z,101491.88
2023-08-10T22:46:20.453Z,101495.59
2023-08-10T22:48:46.913Z,101496.88
2023-08-10T22:51:13.283Z,101493.97
2023-08-10T22:53:39.708Z,101493.97
2023-08-10T22:56:06.238Z,101485.31
2023-08-10T22:58:32.666Z,101487.81
2023-08-10T23:00:59.843Z,101494.16
2023-08-10T23:11:01.931Z,101490.63
2023-08-10T23:17:10.106Z,101492.63
2023-08-10T23:19:36.496Z,101488.56
2023-08-10T23:22:03.315Z,101486.31
2023-08-10T23:24:29.693Z,101481.81
2023-08-10T23:26:56.095Z,101498.50
2023-08-10T23:29:22.697Z,101486.63
2023-08-10T23:31:50.296Z,101482.88
2023-08-10T23:34:17.040Z,101483.41
2023-08-10T23:36:43.429Z,101485.91
2023-08-10T23:39:11.665Z,101492.78
2023-08-10T23:41:38.049Z,101485.66
2023-08-10T23:44:06.892Z,101481.91
2023-08-10T23:46:33.317Z,101489.97
2023-08-10T23:48:59.858Z,101491.34
2023-08-10T23:51:26.248Z,101496.09
2023-08-10T23:53:52.636Z,101491.44
2023-08-10T23:56:19.049Z,101498.25
2023-08-10T23:58:47.132Z,101493.31
